Time;durP1;ratioP1;P1;durP2;ratioP2;P2;SDS_P1;SDS_P2;PMS_P1;PMS_P2;Temp;Humidity;BMP_temperature;BMP_pressure;BME280_temperature;BME280_humidity;BME280_pressure;Samples;Min_cycle;Max_cycle;Signal;HPM_P1;HPM_P2
2021/08/03 00:02:06;;;;;;;6.65;1.30;;;20.20;73.80;;;;;;5091572;28;20467;-70
2021/08/03 00:04:41;;;;;;;2.42;1.20;;;20.10;73.70;;;;;;5090761;28;20040;-70
2021/08/03 00:07:12;;;;;;;2.22;1.27;;;20.10;73.60;;;;;;5090134;28;20024;-70
2021/08/03 00:09:40;;;;;;;3.00;1.27;;;20.10;73.70;;;;;;5091509;28;20495;-71
2021/08/03 00:12:07;;;;;;;3.47;1.30;;;20.00;73.70;;;;;;5091750;28;20059;-70
2021/08/03 00:14:35;;;;;;;2.25;1.15;;;20.00;73.70;;;;;;5090666;28;20036;-70
2021/08/03 00:17:01;;;;;;;8.27;1.50;;;20.00;73.80;;;;;;5091172;28;20083;-70
2021/08/03 00:19:27;;;;;;;5.50;1.40;;;19.90;73.70;;;;;;5091656;28;20126;-70
2021/08/03 00:21:53;;;;;;;4.13;1.52;;;19.90;73.70;;;;;;5090548;28;20032;-70
2021/08/03 00:24:28;;;;;;;4.97;1.35;;;19.80;73.70;;;;;;5089914;28;20028;-70
2021/08/03 00:26:54;;;;;;;5.68;1.35;;;19.80;73.70;;;;;;5091759;28;20123;-70
2021/08/03 00:29:19;;;;;;;3.88;1.40;;;19.70;73.70;;;;;;5089669;28;20498;-70
2021/08/03 00:31:49;;;;;;;4.22;1.50;;;19.70;73.70;;;;;;5091616;28;20032;-70
2021/08/03 00:34:15;;;;;;;5.97;1.40;;;19.70;73.70;;;;;;5090236;28;20028;-70
2021/08/03 00:36:41;;;;;;;5.93;1.38;;;19.60;73.80;;;;;;5091123;28;20035;-70
2021/08/03 00:39:09;;;;;;;5.32;1.48;;;19.60;73.80;;;;;;5091602;28;20048;-70
2021/08/03 00:41:41;;;;;;;3.35;1.58;;;19.50;73.80;;;;;;5091595;28;20035;-70
2021/08/03 00:44:07;;;;;;;4.32;1.50;;;19.40;73.80;;;;;;5090094;28;20020;-70
2021/08/03 00:46:35;;;;;;;2.60;1.50;;;19.40;73.80;;;;;;5091103;28;20020;-70
2021/08/03 00:49:03;;;;;;;4.57;1.50;;;19.40;73.90;;;;;;5091564;28;20032;-70
2021/08/03 00:51:30;;;;;;;8.60;1.50;;;19.40;73.90;;;;;;5089854;28;20016;-70
2021/08/03 00:53:56;;;;;;;4.03;1.70;;;19.30;73.70;;;;;;5090383;28;20032;-70
2021/08/03 00:56:22;;;;;;;3.42;1.75;;;19.30;73.70;;;;;;5088561;28;20021;-70
2021/08/03 00:58:48;;;;;;;4.45;1.67;;;19.30;73.70;;;;;;5091658;28;20483;-70
2021/08/03 01:01:14;;;;;;;7.28;1.80;;;19.20;73.70;;;;;;5089891;28;20040;-70
2021/08/03 01:03:41;;;;;;;6.45;1.60;;;19.20;73.70;;;;;;5089449;28;20061;-70
2021/08/03 01:06:11;;;;;;;4.57;1.40;;;19.10;73.60;;;;;;5091276;28;20064;-70
2021/08/03 01:09:05;;;;;;;3.28;1.52;;;19.10;73.60;;;;;;5086711;28;20103;-70
2021/08/03 01:11:46;;;;;;;4.93;1.60;;;19.00;73.60;;;;;;5071692;28;20391;-70
2021/08/03 01:14:16;;;;;;;11.30;2.70;;;19.00;73.70;;;;;;5076821;28;20118;-70
2021/08/03 01:17:08;;;;;;;3.30;1.60;;;18.90;73.70;;;;;;5088372;28;20028;-70
2021/08/03 01:20:22;;;;;;;2.95;1.75;;;18.90;73.80;;;;;;5087130;28;20040;-70
2021/08/03 01:23:06;;;;;;;3.30;1.55;;;18.80;73.70;;;;;;5015585;28;20036;-69
2021/08/03 01:25:35;;;;;;;2.60;1.55;;;18.80;73.70;;;;;;5031070;28;20054;-70
2021/08/03 01:28:19;;;;;;;5.18;1.65;;;18.80;73.70;;;;;;5063277;28;20040;-70
2021/08/03 01:30:52;;;;;;;5.25;1.80;;;18.70;73.80;;;;;;5093245;28;20028;-69
2021/08/03 01:33:22;;;;;;;5.50;1.45;;;18.70;73.80;;;;;;5093999;28;20040;-69
2021/08/03 01:35:51;;;;;;;2.55;1.45;;;18.60;73.80;;;;;;5092279;28;20020;-70
2021/08/03 01:38:20;;;;;;;7.35;1.63;;;18.60;73.90;;;;;;5093773;28;20475;-70
2021/08/03 01:40:52;;;;;;;3.53;1.60;;;18.60;73.90;;;;;;5092877;28;20114;-70
2021/08/03 01:43:19;;;;;;;6.10;1.80;;;18.60;73.90;;;;;;5094543;28;20020;-69
2021/08/03 01:45:47;;;;;;;13.40;3.28;;;18.60;73.90;;;;;;5090887;28;20348;-70
2021/08/03 01:48:14;;;;;;;2.40;1.63;;;18.40;73.80;;;;;;5092719;28;20464;-70
2021/08/03 01:50:44;;;;;;;2.38;1.50;;;18.40;73.80;;;;;;5094345;28;20365;-70
2021/08/03 01:53:10;;;;;;;10.15;1.50;;;18.40;74.00;;;;;;5092172;28;20103;-69
2021/08/03 01:55:38;;;;;;;2.28;1.50;;;18.40;73.80;;;;;;5093080;28;20390;-70
2021/08/03 01:58:14;;;;;;;2.13;1.58;;;18.40;73.70;;;;;;5078183;28;20024;-70
2021/08/03 02:00:51;;;;;;;7.82;1.80;;;18.40;73.70;;;;;;5092086;28;20062;-69
2021/08/03 02:03:20;;;;;;;4.25;1.50;;;18.40;73.70;;;;;;5093090;28;20059;-70
2021/08/03 02:05:49;;;;;;;2.53;1.63;;;18.30;73.80;;;;;;5093791;28;20024;-70
2021/08/03 02:08:25;;;;;;;4.32;1.60;;;18.30;73.70;;;;;;5084615;28;20073;-74
2021/08/03 02:11:04;;;;;;;5.80;2.03;;;18.30;73.80;;;;;;5092892;28;20080;-69
2021/08/03 02:13:31;;;;;;;3.25;1.55;;;18.20;73.70;;;;;;5091627;28;20039;-69
2021/08/03 02:15:57;;;;;;;2.90;1.63;;;18.20;73.80;;;;;;5093543;28;20073;-69
2021/08/03 02:18:25;;;;;;;3.28;1.95;;;18.20;73.90;;;;;;5092165;28;20032;-69
2021/08/03 02:20:55;;;;;;;3.25;1.80;;;18.20;73.90;;;;;;5089502;28;20048;-69
2021/08/03 02:23:26;;;;;;;3.47;1.80;;;18.10;73.70;;;;;;5091759;28;20032;-71
2021/08/03 02:25:58;;;;;;;2.95;1.70;;;18.10;73.80;;;;;;5092394;28;20114;-69
2021/08/03 02:28:24;;;;;;;5.30;1.52;;;18.10;73.60;;;;;;5090747;28;20534;-69
2021/08/03 02:30:54;;;;;;;6.50;1.60;;;18.00;73.50;;;;;;5090313;28;20049;-70
2021/08/03 02:33:26;;;;;;;6.80;1.90;;;18.10;73.60;;;;;;5091840;28;20020;-69
2021/08/03 02:36:08;;;;;;;2.17;1.40;;;18.00;73.60;;;;;;5091279;28;20053;-69
2021/08/03 02:38:39;;;;;;;3.65;1.45;;;17.90;73.70;;;;;;5091766;28;20097;-69
2021/08/03 02:41:07;;;;;;;5.63;1.77;;;17.90;73.80;;;;;;5091873;28;20051;-69
2021/08/03 02:43:39;;;;;;;6.25;2.03;;;17.90;74.00;;;;;;5090964;28;20384;-70
2021/08/03 02:46:06;;;;;;;2.20;1.45;;;17.80;74.00;;;;;;5091060;28;20111;-69
2021/08/03 02:48:34;;;;;;;3.10;1.77;;;17.80;74.20;;;;;;5093391;28;20063;-69
2021/08/03 02:51:00;;;;;;;2.00;1.33;;;17.70;74.30;;;;;;5091794;28;20032;-70
2021/08/03 02:53:37;;;;;;;3.97;1.80;;;17.70;74.40;;;;;;5092988;28;20052;-69
2021/08/03 02:56:09;;;;;;;7.75;2.13;;;17.70;74.70;;;;;;5082433;28;20044;-70
2021/08/03 02:58:55;;;;;;;3.63;1.70;;;17.70;74.80;;;;;;5085794;28;20020;-70
2021/08/03 03:01:24;;;;;;;6.18;2.22;;;17.60;74.70;;;;;;5088314;28;20036;-69
2021/08/03 03:04:09;;;;;;;6.63;2.03;;;17.70;75.50;;;;;;5089395;28;20036;-70
2021/08/03 03:06:37;;;;;;;4.88;1.60;;;17.70;75.00;;;;;;5093072;28;20482;-70
2021/08/03 03:09:03;;;;;;;3.50;1.65;;;17.60;74.70;;;;;;5090476;28;20410;-70
2021/08/03 03:11:32;;;;;;;3.55;1.70;;;17.60;74.60;;;;;;5090839;28;20071;-69
2021/08/03 03:14:03;;;;;;;2.92;1.30;;;17.50;74.50;;;;;;5090654;28;20430;-70
2021/08/03 03:16:41;;;;;;;4.68;1.60;;;17.60;74.50;;;;;;5092494;28;20027;-69
2021/08/03 03:19:08;;;;;;;4.15;1.83;;;17.50;74.30;;;;;;5090369;28;20046;-69
2021/08/03 03:21:35;;;;;;;2.92;1.90;;;17.50;74.20;;;;;;5091204;28;20066;-70
2021/08/03 03:24:03;;;;;;;1.65;1.55;;;17.50;74.30;;;;;;5090353;28;20115;-70
2021/08/03 03:26:35;;;;;;;2.90;1.52;;;17.40;74.30;;;;;;5091224;28;20417;-69
2021/08/03 03:29:07;;;;;;;4.20;1.75;;;17.40;74.40;;;;;;5089266;28;20114;-70
2021/08/03 03:31:35;;;;;;;2.00;1.73;;;17.40;74.50;;;;;;5090193;28;20115;-69
2021/08/03 03:34:04;;;;;;;2.03;1.50;;;17.40;74.70;;;;;;5090281;28;20066;-69
2021/08/03 03:36:33;;;;;;;6.03;2.42;;;17.40;74.80;;;;;;5092382;28;20481;-69
2021/08/03 03:39:01;;;;;;;4.43;1.92;;;17.40;74.80;;;;;;5091308;28;20020;-69
2021/08/03 03:41:30;;;;;;;2.83;1.63;;;17.30;74.80;;;;;;5090946;28;20066;-69
2021/08/03 03:43:56;;;;;;;2.80;1.60;;;17.30;74.80;;;;;;5091169;28;20047;-69
2021/08/03 03:46:29;;;;;;;3.35;1.70;;;17.30;74.80;;;;;;5091276;28;20035;-69
2021/08/03 03:49:08;;;;;;;4.72;1.70;;;17.30;74.90;;;;;;5090880;28;20027;-69
2021/08/03 03:51:39;;;;;;;3.30;1.70;;;17.30;74.70;;;;;;5090219;28;20040;-70
2021/08/03 03:54:08;;;;;;;3.50;1.60;;;17.20;74.60;;;;;;5091470;28;20032;-69
2021/08/03 03:56:41;;;;;;;3.03;1.73;;;17.20;74.70;;;;;;5090219;28;20017;-69
2021/08/03 03:59:09;;;;;;;3.67;2.08;;;17.20;74.90;;;;;;5091969;28;20040;-69
2021/08/03 04:01:35;;;;;;;2.03;1.58;;;17.20;75.00;;;;;;5091029;28;20093;-69
2021/08/03 04:04:05;;;;;;;6.15;1.45;;;17.10;74.80;;;;;;5091762;28;20035;-69
2021/08/03 04:06:33;;;;;;;2.88;1.48;;;17.10;74.90;;;;;;5089378;28;20118;-70
2021/08/03 04:08:59;;;;;;;4.80;1.95;;;17.00;75.20;;;;;;5090772;28;20027;-69
2021/08/03 04:11:26;;;;;;;3.58;1.85;;;17.00;75.10;;;;;;5090121;28;20483;-70
2021/08/03 04:13:55;;;;;;;2.08;1.63;;;16.90;75.20;;;;;;5090240;28;20031;-70
2021/08/03 04:16:22;;;;;;;2.35;1.63;;;16.90;75.30;;;;;;5090167;28;20024;-70
2021/08/03 04:18:48;;;;;;;5.35;1.70;;;16.90;75.40;;;;;;5091382;28;20024;-69
2021/08/03 04:21:14;;;;;;;6.05;1.80;;;16.80;75.40;;;;;;5090711;28;20130;-69
2021/08/03 04:23:40;;;;;;;4.38;2.00;;;16.80;75.40;;;;;;5091437;28;20020;-69
2021/08/03 04:26:06;;;;;;;2.25;1.70;;;16.80;75.40;;;;;;5091584;28;20028;-70
2021/08/03 04:28:32;;;;;;;4.82;2.08;;;16.80;75.70;;;;;;5090457;28;20024;-70
2021/08/03 04:30:59;;;;;;;5.10;2.00;;;16.80;75.80;;;;;;5091334;28;20128;-69
2021/08/03 04:33:26;;;;;;;4.97;2.65;;;16.80;76.00;;;;;;5091848;28;20588;-69
2021/08/03 04:35:52;;;;;;;2.63;1.90;;;16.70;76.10;;;;;;5090335;28;20468;-69
2021/08/03 04:38:17;;;;;;;4.53;1.58;;;16.70;76.10;;;;;;5091593;28;20032;-69
2021/08/03 04:40:43;;;;;;;2.13;1.70;;;16.70;76.20;;;;;;5091399;28;20047;-69
2021/08/03 04:43:11;;;;;;;4.50;1.70;;;16.60;76.20;;;;;;5090453;28;20020;-69
2021/08/03 04:45:37;;;;;;;6.78;1.85;;;16.60;76.40;;;;;;5089974;28;20032;-70
2021/08/03 04:48:03;;;;;;;4.00;2.50;;;16.60;76.20;;;;;;5086583;28;20433;-69
2021/08/03 04:50:29;;;;;;;2.92;1.80;;;16.60;76.40;;;;;;5090978;28;20043;-69
2021/08/03 04:52:56;;;;;;;5.05;2.15;;;16.70;76.70;;;;;;5091109;28;20104;-69
2021/08/03 04:55:21;;;;;;;3.42;1.98;;;16.60;76.90;;;;;;5092608;28;20028;-70
2021/08/03 04:57:48;;;;;;;5.55;1.83;;;16.60;77.10;;;;;;5095325;28;20035;-69
2021/08/03 05:00:15;;;;;;;2.53;1.83;;;16.60;77.30;;;;;;5094897;28;20036;-69
2021/08/03 05:02:42;;;;;;;10.00;2.00;;;16.60;77.40;;;;;;5094465;28;20173;-69
2021/08/03 05:05:08;;;;;;;4.53;2.10;;;16.60;77.60;;;;;;5093656;28;20028;-69
2021/08/03 05:07:34;;;;;;;7.72;1.98;;;16.60;77.90;;;;;;5094983;28;20032;-69
2021/08/03 05:10:05;;;;;;;2.85;1.88;;;16.60;78.20;;;;;;5094312;28;20027;-70
2021/08/03 05:12:32;;;;;;;3.75;2.33;;;16.60;78.20;;;;;;5094022;28;20056;-70
2021/08/03 05:15:00;;;;;;;5.25;1.92;;;16.50;78.30;;;;;;5094797;28;20024;-69
2021/08/03 05:17:28;;;;;;;5.07;2.30;;;16.60;78.90;;;;;;5094372;28;20028;-69
2021/08/03 05:19:54;;;;;;;4.82;2.25;;;16.60;79.20;;;;;;5093529;28;20050;-70
2021/08/03 05:22:20;;;;;;;6.60;2.40;;;16.60;79.40;;;;;;5094940;28;20110;-70
2021/08/03 05:24:45;;;;;;;3.75;1.90;;;16.60;79.80;;;;;;5094329;28;20501;-70
2021/08/03 05:27:11;;;;;;;5.82;2.25;;;16.60;80.10;;;;;;5094429;28;20383;-70
2021/08/03 05:29:36;;;;;;;3.92;2.03;;;16.70;80.30;;;;;;5094446;28;20035;-70
2021/08/03 05:32:02;;;;;;;5.45;2.05;;;16.80;80.50;;;;;;5093658;28;20024;-70
2021/08/03 05:34:28;;;;;;;16.27;2.70;;;16.70;79.80;;;;;;5094481;28;20028;-70
2021/08/03 05:36:55;;;;;;;8.30;2.33;;;16.70;80.00;;;;;;5094626;28;20130;-70
2021/08/03 05:39:20;;;;;;;3.88;1.85;;;16.80;79.60;;;;;;5093551;28;20028;-70
2021/08/03 05:41:46;;;;;;;4.38;2.40;;;16.80;80.10;;;;;;5094660;28;20100;-70
2021/08/03 05:44:12;;;;;;;4.30;2.00;;;16.80;79.80;;;;;;5093608;28;20048;-70
2021/08/03 05:46:37;;;;;;;3.20;1.85;;;16.80;80.10;;;;;;5093849;28;20035;-70
2021/08/03 05:49:03;;;;;;;4.53;2.00;;;16.80;80.30;;;;;;5093948;28;20050;-70
2021/08/03 05:51:29;;;;;;;7.70;2.15;;;16.90;80.60;;;;;;5093804;28;20040;-69
2021/08/03 05:53:55;;;;;;;6.50;2.25;;;16.90;80.70;;;;;;5093673;28;20407;-69
2021/08/03 05:56:21;;;;;;;5.13;2.00;;;17.00;81.10;;;;;;5093435;28;20032;-70
2021/08/03 05:58:46;;;;;;;2.55;1.95;;;17.00;81.00;;;;;;5093692;28;20437;-69
2021/08/03 06:01:12;;;;;;;3.25;2.05;;;17.00;81.00;;;;;;5093761;28;20040;-69
2021/08/03 06:03:38;;;;;;;5.63;2.20;;;17.00;81.50;;;;;;5090880;28;20021;-71
2021/08/03 06:06:07;;;;;;;8.00;1.90;;;17.20;81.90;;;;;;5088149;28;20027;-70
2021/08/03 06:08:34;;;;;;;6.15;2.00;;;17.20;81.70;;;;;;5093779;28;20028;-70
2021/08/03 06:11:01;;;;;;;6.53;1.70;;;17.20;82.10;;;;;;5092805;28;20494;-69
2021/08/03 06:13:30;;;;;;;4.35;2.00;;;17.30;81.60;;;;;;5091538;28;20078;-70
2021/08/03 06:15:59;;;;;;;8.30;1.70;;;17.30;82.00;;;;;;5093934;28;20036;-73
2021/08/03 06:18:29;;;;;;;5.68;1.52;;;17.30;80.80;;;;;;5093283;28;20097;-74
2021/08/03 06:20:55;;;;;;;2.95;1.40;;;17.30;81.20;;;;;;5092873;28;20038;-73
2021/08/03 06:23:23;;;;;;;5.45;1.60;;;17.40;81.20;;;;;;5093259;28;20024;-74
2021/08/03 06:25:50;;;;;;;5.85;2.45;;;17.40;82.10;;;;;;5093485;28;20032;-73
2021/08/03 06:28:18;;;;;;;6.47;1.60;;;17.40;82.70;;;;;;5092744;28;20051;-74
2021/08/03 06:30:50;;;;;;;2.45;1.10;;;17.50;82.80;;;;;;5087030;28;20038;-73
2021/08/03 06:33:20;;;;;;;4.10;1.33;;;17.50;82.40;;;;;;5092923;28;20455;-73
2021/08/03 06:35:48;;;;;;;2.38;1.10;;;17.60;82.10;;;;;;5092661;28;20095;-73
2021/08/03 06:38:14;;;;;;;3.28;1.00;;;17.60;82.10;;;;;;5093342;28;20080;-73
2021/08/03 06:41:02;;;;;;;2.83;1.30;;;17.70;81.60;;;;;;5092480;28;20031;-73
2021/08/03 06:43:30;;;;;;;3.60;1.27;;;17.70;81.30;;;;;;5093077;28;20127;-73
2021/08/03 06:46:06;;;;;;;4.22;1.30;;;17.80;80.50;;;;;;5093163;28;20035;-73
2021/08/03 06:48:52;;;;;;;2.63;1.20;;;17.80;81.20;;;;;;5092289;28;20032;-73
2021/08/03 06:51:19;;;;;;;2.33;1.00;;;17.80;81.10;;;;;;5081649;28;20424;-73
2021/08/03 06:53:46;;;;;;;2.47;1.02;;;17.90;81.10;;;;;;5092024;28;20648;-73
2021/08/03 06:56:23;;;;;;;4.13;1.13;;;17.90;80.80;;;;;;5091401;28;20035;-73
2021/08/03 06:59:04;;;;;;;3.95;0.85;;;18.00;81.10;;;;;;5091908;28;20089;-73
2021/08/03 07:01:42;;;;;;;1.25;1.00;;;18.10;81.10;;;;;;5092037;28;20480;-73
2021/08/03 07:04:11;;;;;;;0.95;0.85;;;18.10;79.70;;;;;;5090702;28;20027;-73
2021/08/03 07:06:46;;;;;;;3.08;1.30;;;18.10;79.60;;;;;;5092763;28;20031;-74
2021/08/03 07:09:15;;;;;;;1.33;0.82;;;18.10;79.20;;;;;;5091453;28;20105;-73
2021/08/03 07:11:42;;;;;;;5.35;1.80;;;18.10;79.60;;;;;;5089888;28;20055;-75
2021/08/03 07:14:08;;;;;;;3.00;1.17;;;18.20;79.70;;;;;;5090931;28;20055;-74
2021/08/03 07:16:38;;;;;;;3.20;1.20;;;18.20;80.10;;;;;;5090516;28;20045;-74
2021/08/03 07:19:05;;;;;;;9.38;1.40;;;18.30;80.00;;;;;;5091664;28;20487;-73
2021/08/03 07:21:31;;;;;;;3.15;1.20;;;18.30;79.30;;;;;;5091780;28;20044;-76
2021/08/03 07:23:57;;;;;;;5.18;1.15;;;18.40;79.10;;;;;;5091565;28;20073;-73
2021/08/03 07:26:24;;;;;;;3.92;1.13;;;18.30;78.90;;;;;;5092075;28;20035;-73
2021/08/03 07:28:50;;;;;;;4.10;1.10;;;18.40;78.80;;;;;;5091561;28;20133;-73
2021/08/03 07:31:16;;;;;;;3.38;1.35;;;18.40;79.10;;;;;;5091093;28;20118;-73
2021/08/03 07:33:42;;;;;;;5.88;1.52;;;18.50;79.20;;;;;;5091436;28;20170;-73
2021/08/03 07:36:08;;;;;;;3.45;1.02;;;18.50;79.10;;;;;;5092075;28;20039;-73
2021/08/03 07:38:34;;;;;;;5.63;1.00;;;18.50;78.70;;;;;;5090985;28;20409;-73
2021/08/03 07:41:00;;;;;;;5.05;1.33;;;18.60;78.40;;;;;;5091506;28;20120;-73
2021/08/03 07:43:26;;;;;;;4.70;1.10;;;18.70;78.80;;;;;;5091672;28;20107;-73
2021/08/03 07:45:51;;;;;;;2.60;1.10;;;18.70;79.00;;;;;;5090520;28;20036;-73
2021/08/03 07:48:17;;;;;;;4.68;1.10;;;18.70;79.70;;;;;;5089052;28;20103;-75
2021/08/03 07:50:43;;;;;;;1.73;1.00;;;18.80;79.10;;;;;;5090918;28;20040;-78
2021/08/03 07:53:08;;;;;;;4.30;1.10;;;18.80;78.70;;;;;;5090140;28;20107;-76
2021/08/03 07:55:34;;;;;;;1.65;1.30;;;18.90;78.40;;;;;;5091016;28;20028;-75
2021/08/03 07:58:00;;;;;;;2.53;0.90;;;18.90;77.70;;;;;;5090361;28;20020;-73
2021/08/03 08:00:26;;;;;;;1.65;1.00;;;19.00;77.40;;;;;;5088973;28;20402;-73
2021/08/03 08:02:52;;;;;;;2.33;1.10;;;19.00;77.40;;;;;;5089511;28;20815;-73
2021/08/03 08:05:17;;;;;;;5.00;1.50;;;19.00;77.20;;;;;;5089204;28;20032;-73
2021/08/03 08:07:43;;;;;;;0.90;0.90;;;19.10;77.40;;;;;;5090067;28;20081;-72
2021/08/03 08:10:09;;;;;;;1.88;0.93;;;19.10;77.30;;;;;;5089371;28;20070;-73
2021/08/03 08:12:35;;;;;;;4.93;1.00;;;19.10;77.50;;;;;;5089261;28;20044;-73
2021/08/03 08:15:01;;;;;;;2.78;1.35;;;19.10;77.20;;;;;;5089983;28;20028;-73
2021/08/03 08:17:26;;;;;;;2.60;1.05;;;19.20;77.30;;;;;;5091738;28;20429;-74
2021/08/03 08:19:52;;;;;;;3.40;1.00;;;19.30;76.50;;;;;;5089565;28;20097;-74
2021/08/03 08:22:18;;;;;;;3.22;1.40;;;19.30;76.40;;;;;;5090972;28;20060;-73
2021/08/03 08:24:44;;;;;;;9.43;1.05;;;19.40;76.00;;;;;;5091044;28;20069;-73
2021/08/03 08:27:10;;;;;;;1.58;0.90;;;19.40;76.00;;;;;;5089796;28;20077;-74
2021/08/03 08:29:38;;;;;;;1.60;0.90;;;19.40;75.00;;;;;;5092010;28;20387;-74
2021/08/03 08:32:05;;;;;;;5.15;0.90;;;19.40;74.90;;;;;;5094693;28;20422;-74
2021/08/03 08:34:30;;;;;;;2.25;1.08;;;19.50;74.60;;;;;;5093974;28;20540;-73
2021/08/03 08:36:56;;;;;;;2.55;0.90;;;19.50;74.40;;;;;;5094884;28;20024;-73
2021/08/03 08:39:22;;;;;;;1.27;1.00;;;19.60;74.00;;;;;;5091204;28;20042;-73
2021/08/03 08:41:48;;;;;;;3.30;1.08;;;19.70;74.10;;;;;;5090267;28;20040;-74
2021/08/03 08:44:13;;;;;;;0.90;0.90;;;19.70;73.00;;;;;;5093463;28;20074;-74
2021/08/03 08:46:40;;;;;;;2.60;1.10;;;19.70;73.10;;;;;;5094268;28;20043;-72
2021/08/03 08:49:07;;;;;;;5.57;1.20;;;19.80;72.60;;;;;;5091183;28;20028;-79
2021/08/03 08:51:33;;;;;;;2.97;1.00;;;19.80;72.80;;;;;;5093531;28;20064;-74
2021/08/03 08:54:00;;;;;;;1.25;0.73;;;19.80;72.70;;;;;;5092368;28;20391;-74
2021/08/03 08:56:28;;;;;;;3.08;0.88;;;19.90;72.70;;;;;;5092408;28;20024;-74
2021/08/03 08:58:53;;;;;;;1.25;1.00;;;19.90;72.80;;;;;;5092262;28;20031;-74
2021/08/03 09:01:19;;;;;;;5.53;1.13;;;20.00;72.20;;;;;;5091072;28;20040;-74
2021/08/03 09:03:45;;;;;;;1.55;1.08;;;20.00;72.90;;;;;;5089310;28;20078;-74
2021/08/03 09:06:11;;;;;;;1.05;0.85;;;20.00;72.20;;;;;;5091377;28;20020;-74
2021/08/03 09:08:43;;;;;;;4.82;1.00;;;20.00;72.30;;;;;;5090504;28;20024;-74
2021/08/03 09:11:14;;;;;;;8.27;2.13;;;20.10;72.30;;;;;;5091442;28;20024;-73
2021/08/03 09:13:51;;;;;;;1.90;1.10;;;20.20;72.40;;;;;;5090597;28;20395;-74
2021/08/03 09:16:18;;;;;;;2.58;1.05;;;20.20;72.30;;;;;;5088342;28;20027;-74
2021/08/03 09:18:45;;;;;;;2.50;1.10;;;20.20;72.20;;;;;;5090464;28;20531;-74
2021/08/03 09:21:26;;;;;;;1.95;1.00;;;20.20;72.00;;;;;;5088944;28;20062;-74
2021/08/03 09:24:03;;;;;;;2.10;0.98;;;20.20;71.70;;;;;;5090203;28;20062;-74
2021/08/03 09:26:47;;;;;;;5.07;1.67;;;20.30;71.70;;;;;;5089888;28;20074;-74
2021/08/03 09:29:15;;;;;;;1.92;1.13;;;20.40;71.60;;;;;;5089238;28;20036;-74
2021/08/03 09:31:49;;;;;;;1.98;1.00;;;20.40;71.10;;;;;;5088702;28;20024;-74
2021/08/03 09:34:16;;;;;;;2.33;1.20;;;20.40;71.30;;;;;;5092770;28;20113;-72
2021/08/03 09:36:54;;;;;;;2.85;1.02;;;20.50;70.90;;;;;;5091942;28;20525;-74
2021/08/03 09:39:40;;;;;;;0.98;0.80;;;20.50;70.70;;;;;;5091923;28;20036;-74
2021/08/03 09:42:18;;;;;;;2.00;1.45;;;20.50;70.70;;;;;;5091961;28;20126;-74
2021/08/03 09:44:55;;;;;;;5.07;0.90;;;20.60;69.90;;;;;;5091851;28;20028;-75
2021/08/03 09:47:22;;;;;;;19.05;3.53;;;20.60;69.30;;;;;;5093867;28;20036;-75
2021/08/03 09:49:51;;;;;;;1.70;1.10;;;20.60;69.90;;;;;;5093138;28;20028;-78
2021/08/03 09:52:39;;;;;;;3.10;1.33;;;20.70;69.50;;;;;;5092467;28;20087;-79
2021/08/03 09:55:18;;;;;;;5.93;1.20;;;20.60;69.50;;;;;;5093774;28;20032;-74
2021/08/03 09:57:46;;;;;;;1.20;0.93;;;20.70;69.50;;;;;;5090795;28;20032;-74
2021/08/03 10:00:29;;;;;;;6.25;1.20;;;20.70;69.60;;;;;;5094676;28;20043;-73
2021/08/03 10:02:54;;;;;;;5.40;1.10;;;20.70;69.80;;;;;;5093107;28;20035;-74
2021/08/03 10:05:21;;;;;;;2.65;1.00;;;20.60;69.70;;;;;;5090155;28;20024;-75
2021/08/03 10:07:47;;;;;;;4.55;1.17;;;20.80;70.10;;;;;;5093932;28;20035;-73
2021/08/03 10:10:14;;;;;;;1.95;1.05;;;20.70;69.80;;;;;;5094301;28;20028;-74
2021/08/03 10:12:39;;;;;;;4.57;1.20;;;20.80;69.50;;;;;;5092170;28;20055;-74
2021/08/03 10:15:10;;;;;;;3.92;1.30;;;20.80;69.30;;;;;;5093645;28;20036;-74
2021/08/03 10:17:36;;;;;;;7.03;1.30;;;20.80;69.50;;;;;;5092541;28;20041;-75
2021/08/03 10:20:03;;;;;;;3.53;1.13;;;20.80;69.20;;;;;;5091358;28;20036;-73
2021/08/03 10:22:33;;;;;;;6.43;1.30;;;20.80;69.00;;;;;;5093464;28;20099;-74
2021/08/03 10:25:06;;;;;;;3.17;1.02;;;20.90;69.20;;;;;;5087099;28;20487;-75
2021/08/03 10:27:40;;;;;;;1.38;1.00;;;20.90;68.90;;;;;;5087573;28;20024;-74
2021/08/03 10:30:29;;;;;;;3.92;1.13;;;21.00;69.20;;;;;;5093881;28;20043;-75
2021/08/03 10:32:56;;;;;;;3.47;0.98;;;21.00;69.10;;;;;;5090475;28;20090;-74
2021/08/03 10:35:42;;;;;;;3.42;1.13;;;21.00;69.40;;;;;;5086501;28;20051;-74
2021/08/03 10:38:12;;;;;;;3.28;1.38;;;21.00;70.00;;;;;;5092533;28;20146;-74
2021/08/03 10:40:43;;;;;;;3.38;1.33;;;21.10;69.30;;;;;;5091484;28;20036;-75
2021/08/03 10:43:24;;;;;;;1.88;1.00;;;21.10;69.00;;;;;;5092588;28;20413;-75
2021/08/03 10:46:07;;;;;;;5.43;1.20;;;21.10;68.30;;;;;;5092662;28;20085;-76
2021/08/03 10:48:39;;;;;;;;;;;21.20;68.70;;;;;;5084161;28;20028;-75
2021/08/03 10:51:14;;;;;;;4.15;0.98;;;21.20;69.30;;;;;;5091852;28;20282;-74
2021/08/03 10:54:02;;;;;;;1.27;0.90;;;21.20;69.20;;;;;;5091077;28;20095;-75
2021/08/03 10:56:29;;;;;;;1.33;0.80;;;21.20;69.10;;;;;;5097552;28;20059;-75
2021/08/03 10:59:32;;;;;;;4.57;0.98;;;21.30;70.00;;;;;;5097676;28;20020;-75
2021/08/03 11:01:59;;;;;;;5.93;0.90;;;21.30;70.60;;;;;;5091626;28;20043;-75
2021/08/03 11:04:40;;;;;;;2.35;1.00;;;21.30;71.40;;;;;;5092064;28;20064;-75
2021/08/03 11:07:25;;;;;;;1.55;1.10;;;21.30;71.00;;;;;;5092084;28;20562;-76
2021/08/03 11:10:09;;;;;;;2.78;0.95;;;21.40;71.00;;;;;;5090907;28;20036;-75
2021/08/03 11:12:49;;;;;;;3.45;1.00;;;21.40;71.10;;;;;;5091277;28;20170;-75
2021/08/03 11:15:23;;;;;;;2.58;1.10;;;21.40;70.20;;;;;;5091400;28;20053;-75
2021/08/03 11:17:50;;;;;;;5.90;1.48;;;21.40;69.60;;;;;;5089323;28;20472;-76
2021/08/03 11:20:35;;;;;;;2.95;1.40;;;21.50;69.10;;;;;;5091867;28;20036;-76
2021/08/03 11:23:05;;;;;;;1.73;1.10;;;21.50;69.10;;;;;;5084341;28;20048;-75
2021/08/03 11:25:32;;;;;;;2.63;1.00;;;21.50;69.10;;;;;;5090035;28;20115;-75
2021/08/03 11:28:07;;;;;;;5.55;1.25;;;21.60;69.00;;;;;;5091651;28;20016;-77
2021/08/03 11:30:32;;;;;;;2.35;1.20;;;21.60;68.50;;;;;;5090193;28;20508;-74
2021/08/03 11:32:58;;;;;;;2.00;1.35;;;21.60;67.70;;;;;;5090588;28;20043;-75
2021/08/03 11:35:29;;;;;;;3.17;1.13;;;21.60;67.60;;;;;;5091704;28;20028;-74
2021/08/03 11:37:55;;;;;;;2.55;0.90;;;21.60;68.00;;;;;;5090060;28;20481;-75
2021/08/03 11:40:21;;;;;;;2.47;1.10;;;21.60;68.00;;;;;;5091461;28;20128;-75
2021/08/03 11:42:47;;;;;;;2.30;1.17;;;21.70;67.40;;;;;;5090795;28;20051;-75
2021/08/03 11:45:20;;;;;;;2.40;1.00;;;21.60;66.50;;;;;;5081160;28;20028;-75
2021/08/03 11:47:53;;;;;;;3.70;1.27;;;21.60;67.00;;;;;;5091570;28;20056;-75
2021/08/03 11:50:39;;;;;;;0.98;0.75;;;21.60;66.30;;;;;;5089059;28;20479;-76
2021/08/03 11:53:09;;;;;;;3.40;1.45;;;21.70;66.10;;;;;;5091233;28;20031;-74
2021/08/03 11:55:36;;;;;;;2.13;1.08;;;21.60;66.80;;;;;;5090270;28;20047;-73
2021/08/03 11:58:03;;;;;;;1.65;1.02;;;21.70;67.00;;;;;;5090368;28;20026;-73
2021/08/03 12:00:29;;;;;;;1.25;0.98;;;21.60;67.10;;;;;;5090650;28;20036;-74
2021/08/03 12:02:58;;;;;;;5.32;1.15;;;21.70;67.40;;;;;;5090853;28;20020;-73
2021/08/03 12:05:32;;;;;;;1.10;1.00;;;21.70;67.20;;;;;;5090176;28;20036;-76
2021/08/03 12:08:09;;;;;;;1.23;0.93;;;21.80;66.90;;;;;;5089914;28;20032;-74
2021/08/03 12:10:48;;;;;;;1.77;0.90;;;21.80;66.70;;;;;;5090556;28;20032;-74
2021/08/03 12:13:28;;;;;;;4.57;1.00;;;21.90;67.30;;;;;;5089988;28;20169;-83
2021/08/03 12:15:56;;;;;;;0.93;0.90;;;21.90;67.10;;;;;;5091041;28;20097;-83
2021/08/03 12:18:22;;;;;;;3.05;1.23;;;21.90;67.20;;;;;;5090486;28;20039;-83
2021/08/03 12:20:56;;;;;;;1.92;1.00;;;21.90;67.60;;;;;;5090672;28;20407;-83
2021/08/03 12:23:32;;;;;;;2.17;0.90;;;22.00;67.00;;;;;;5091030;28;20028;-76
2021/08/03 12:26:03;;;;;;;2.13;1.00;;;22.00;67.00;;;;;;5084932;28;20464;-79
2021/08/03 12:28:30;;;;;;;1.20;1.10;;;22.00;67.80;;;;;;5084401;28;20204;-78
2021/08/03 12:30:58;;;;;;;1.15;0.90;;;22.00;67.60;;;;;;5085609;28;20100;-77
2021/08/03 12:33:29;;;;;;;1.45;1.13;;;22.10;67.60;;;;;;5087703;28;20131;-75
2021/08/03 12:36:05;;;;;;;3.28;1.10;;;22.20;67.80;;;;;;5089824;28;20047;-76
2021/08/03 12:38:31;;;;;;;5.97;1.20;;;22.20;67.20;;;;;;5084031;28;20035;-78
2021/08/03 12:40:58;;;;;;;1.02;0.75;;;22.30;66.00;;;;;;5087778;28;20044;-75
2021/08/03 12:43:38;;;;;;;3.58;1.05;;;22.30;65.90;;;;;;5090185;28;20615;-75
2021/08/03 12:46:04;;;;;;;2.40;1.10;;;22.30;66.60;;;;;;5089693;28;20055;-75
2021/08/03 12:48:31;;;;;;;1.55;0.80;;;22.40;66.40;;;;;;5090071;28;20051;-75
2021/08/03 12:51:02;;;;;;;1.10;0.90;;;22.40;65.50;;;;;;5090453;28;20036;-75
2021/08/03 12:53:30;;;;;;;1.65;1.10;;;22.50;64.60;;;;;;5090245;28;20146;-75
2021/08/03 12:56:15;;;;;;;1.90;1.05;;;22.50;64.10;;;;;;5088551;28;20036;-75
2021/08/03 12:58:43;;;;;;;2.20;1.30;;;22.60;63.90;;;;;;5086412;28;20065;-75
2021/08/03 13:01:18;;;;;;;1.60;0.90;;;22.60;66.40;;;;;;5088864;28;20051;-75
2021/08/03 13:03:47;;;;;;;1.92;0.93;;;22.70;65.90;;;;;;5089834;28;20517;-74